Sea Pearl — WDG5675 — position and weather

sailwx.info

Track history (hours):
 
Tides and Currents Weather Stations Pressure Air Temp Water Temp Dewpoint Dewpoint Depression Visibility Wind Speed Wind Dir Waves Ship Positions

Sea Pearl

Owner: Tomich Brothers Logistics, LLC, San Pedro, CA. More information available from US FCC via Universal Licensing System and Coast Guard Vessel Documentation Center.

Last reported at 2018-Apr-16 05:02 UTC. Time now 2018-Apr-20 01:08 UTC.
Position N 34°15' W 119°16'.

Length 20 m.

Type: Fishing. MMSI: 367549080.

Date/timePositionNaut miles runAvg speedWind from/ knotsBaromVisibWave heightAir tempDewpointWater temp
2018-Apr-16 05:02N 34°15' W 119°16'0 0.0
2018-Apr-15 03:37N 34°15' W 119°16'0 0.0
2018-Apr-15 03:07N 34°15' W 119°16'0 0.0
2018-Apr-15 02:55N 34°15' W 119°16'0 0.0
2018-Apr-15 02:16N 34°15' W 119°16'0 0.0
2018-Apr-14 06:07N 34°15' W 119°16'0 0.0
2018-Apr-13 20:19N 34°15' W 119°16'0 0.0
2018-Apr-13 19:49N 34°15' W 119°16'0 0.0
2018-Apr-13 19:22N 34°15' W 119°16'0 0.0
2018-Apr-13 18:55N 34°15' W 119°16'0 0.0
2018-Apr-13 17:34N 34°15' W 119°16'0 0.1
2018-Apr-13 17:28N 34°15' W 119°16'0 0.0
2018-Apr-13 16:52N 34°15' W 119°16'0 0.0
2018-Apr-13 16:10N 34°15' W 119°16'0 0.0
2018-Apr-13 15:52N 34°15' W 119°16'0 0.0
2018-Apr-13 14:34N 34°15' W 119°16'0 0.0
2018-Apr-13 14:28N 34°15' W 119°16'0 0.0
2018-Apr-13 12:25N 34°15' W 119°16'0 0.0
2018-Apr-13 11:58N 34°15' W 119°16'0 0.0
2018-Apr-13 11:16N 34°15' W 119°16'0 0.0
2018-Apr-13 10:58N 34°15' W 119°16'0 0.0
2018-Apr-13 10:07N 34°15' W 119°16'0 0.0
2018-Apr-13 09:55N 34°15' W 119°16'0 0.0
2018-Apr-13 09:22N 34°15' W 119°16'0 0.0
2018-Apr-13 08:28N 34°15' W 119°16'0 0.0
2018-Apr-13 07:58N 34°15' W 119°16'0 0.0
2018-Apr-13 07:28N 34°15' W 119°16'0 0.0
2018-Apr-13 06:52N 34°15' W 119°16'0 0.0
2018-Apr-13 06:22N 34°15' W 119°16'0 0.0
2018-Apr-13 05:55N 34°15' W 119°16'0 0.0
2018-Apr-13 04:19N 34°15' W 119°16'1 2.9
2018-Apr-13 04:00N 34°14' W 119°17'3 4.9
2018-Apr-13 03:22N 34°11' W 119°16'3 6.8
2018-Apr-13 02:58N 34°09' W 119°14'3 6.2
2018-Apr-13 02:30N 34°07' W 119°11'3 5.9
2018-Apr-13 02:00N 34°05' W 119°08'3 5.5
2018-Apr-13 01:29N 34°04' W 119°05'2 4.9
2018-Apr-13 01:00N 34°03' W 119°02'2 4.8
2018-Apr-13 00:30N 34°02' W 119°00'2 4.8
2018-Apr-13 00:00N 34°01' W 118°57'3 5.2
2018-Apr-12 23:26N 34°00' W 118°54'3 5.8
2018-Apr-12 22:57N 33°58' W 118°52'4 5.7
2018-Apr-12 22:16N 33°55' W 118°49'1 3.2
2018-Apr-12 21:55N 33°55' W 118°48'87 6.7
2018-Apr-12 08:58N 32°55' W 117°32'3 7.3
2018-Apr-12 08:30N 32°52' W 117°29'8 7.0
2018-Apr-12 07:24N 32°46' W 117°23'  
Track history (hours):
 
Tides and Currents Weather Stations Pressure Air Temp Water Temp Dewpoint Dewpoint Depression Visibility Wind Speed Wind Dir Waves Ship Positions

Sea Pearl

Owner: Tomich Brothers Logistics, LLC, San Pedro, CA. More information available from US FCC via Universal Licensing System and Coast Guard Vessel Documentation Center.

Last reported at 2018-Apr-16 05:02 UTC. Time now 2018-Apr-20 01:08 UTC.
Position N 34°15' W 119°16'.

Length 20 m.

Type: Fishing. MMSI: 367549080.

Date/timePositionNaut miles runAvg speedWind from/ knotsBaromVisibWave heightAir tempDewpointWater temp
2018-Apr-16 05:02N 34°15' W 119°16'0 0.0
2018-Apr-15 03:37N 34°15' W 119°16'0 0.0
2018-Apr-15 03:07N 34°15' W 119°16'0 0.0
2018-Apr-15 02:55N 34°15' W 119°16'0 0.0
2018-Apr-15 02:16N 34°15' W 119°16'0 0.0
2018-Apr-14 06:07N 34°15' W 119°16'0 0.0
2018-Apr-13 20:19N 34°15' W 119°16'0 0.0
2018-Apr-13 19:49N 34°15' W 119°16'0 0.0
2018-Apr-13 19:22N 34°15' W 119°16'0 0.0
2018-Apr-13 18:55N 34°15' W 119°16'0 0.0
2018-Apr-13 17:34N 34°15' W 119°16'0 0.1
2018-Apr-13 17:28N 34°15' W 119°16'0 0.0
2018-Apr-13 16:52N 34°15' W 119°16'0 0.0
2018-Apr-13 16:10N 34°15' W 119°16'0 0.0
2018-Apr-13 15:52N 34°15' W 119°16'0 0.0
2018-Apr-13 14:34N 34°15' W 119°16'0 0.0
2018-Apr-13 14:28N 34°15' W 119°16'0 0.0
2018-Apr-13 12:25N 34°15' W 119°16'0 0.0
2018-Apr-13 11:58N 34°15' W 119°16'0 0.0
2018-Apr-13 11:16N 34°15' W 119°16'0 0.0
2018-Apr-13 10:58N 34°15' W 119°16'0 0.0
2018-Apr-13 10:07N 34°15' W 119°16'0 0.0
2018-Apr-13 09:55N 34°15' W 119°16'0 0.0
2018-Apr-13 09:22N 34°15' W 119°16'0 0.0
2018-Apr-13 08:28N 34°15' W 119°16'0 0.0
2018-Apr-13 07:58N 34°15' W 119°16'0 0.0
2018-Apr-13 07:28N 34°15' W 119°16'0 0.0
2018-Apr-13 06:52N 34°15' W 119°16'0 0.0
2018-Apr-13 06:22N 34°15' W 119°16'0 0.0
2018-Apr-13 05:55N 34°15' W 119°16'0 0.0
2018-Apr-13 04:19N 34°15' W 119°16'1 2.9
2018-Apr-13 04:00N 34°14' W 119°17'3 4.9
2018-Apr-13 03:22N 34°11' W 119°16'3 6.8
2018-Apr-13 02:58N 34°09' W 119°14'3 6.2
2018-Apr-13 02:30N 34°07' W 119°11'3 5.9
2018-Apr-13 02:00N 34°05' W 119°08'3 5.5
2018-Apr-13 01:29N 34°04' W 119°05'2 4.9
2018-Apr-13 01:00N 34°03' W 119°02'2 4.8
2018-Apr-13 00:30N 34°02' W 119°00'2 4.8
2018-Apr-13 00:00N 34°01' W 118°57'3 5.2
2018-Apr-12 23:26N 34°00' W 118°54'3 5.8
2018-Apr-12 22:57N 33°58' W 118°52'4 5.7
2018-Apr-12 22:16N 33°55' W 118°49'1 3.2
2018-Apr-12 21:55N 33°55' W 118°48'87 6.7
2018-Apr-12 08:58N 32°55' W 117°32'3 7.3
2018-Apr-12 08:30N 32°52' W 117°29'8 7.0
2018-Apr-12 07:24N 32°46' W 117°23'  

Dump ship's entire track history